Aviation Digital Data Service (ADDS)

Output produced by METARs form (1737 UTC 21 September 2019)
found at http://aviationweather.gov/metar/data/
 
KCLT 211652Z 00000KT 10SM FEW050 FEW250 28/14 A3031 RMK AO2 SLP256 T02780139
KCLT 211720Z 2118/2224 22003KT P6SM FEW050 FEW250 
     FM220100 VRB03KT P6SM SKC 
     FM221700 20003KT P6SM FEW250